Airfield :
LOGIN :

Register | Disclaimer

   EN    FR    IT 

 










Legend :    VFR   Marginal VFR   IFR   Intensive IFR   Very Intensive IFR
Visi :
Ceiling :
>= 8 km
>= 3000ft
5 to 8 km
1000 to 3000 ft
1500m to 5 km
500 to 1000 ft
800 to 1500m
200 to 500 ft
< 800m
< 200 ft
Symbols :   Thunderstorms  Fog  Heavy snow  Heavy precipitations  Wind > 20 kt
SIGMETs :     Misc.  Thunderstorms  Icing  Turbulence  Mountain Waves  Volcanic Ashes







- Airport Elevation : 13 ft
- IATA code : CEQ
- Download approach charts


LFMD - Cannes Mandelieu

CURRENT METAR :
  • 222000Z AUTO VRB03KT CAVOK 15/12 Q1018 NOSIG

EXPIRED METARs :
  • 221930Z AUTO VRB02KT CAVOK 16/12 Q1017 NOSIG
  • 221900Z AUTO 00000KT CAVOK 17/13 Q1017 NOSIG
  • 221830Z AUTO 00000KT CAVOK 17/13 Q1017 NOSIG
  • 221800Z AUTO 18002KT CAVOK 17/13 Q1017 NOSIG
  • 221730Z AUTO 18002KT CAVOK 18/14 Q1016 NOSIG

TAF TAF LFMD
Valid from the 22 at 15:00 until the 23 at 15:00 UTC


221400Z 2215/2315 16008KT CAVOK
BECMG 2216/2218 VRB02KT
PROB40
TEMPO 2303/2306 3000 BR OVC005
BECMG 2308/2310 16008KT
ATIS : +33 4 93 48 73 23
No reported NOTAMs for that airfield.



MET'MAP, your aeronautical weather chart ! - Copyright ORBIFLY December 2007 - Disclaimer

ORBIFLY MET'MAP TEAM :

Programming & Development : Alexandra Zaïnal
Concept & Development : Baudouin d'Aumeries
Co-Development & Prog : Marc-Olivier Méhu
Technical & hardware support : Manuel Goepfert

Contact : metmap@orbifly.com




SOURCES & CREDITS :

   NOAA